Time;durP1;ratioP1;P1;durP2;ratioP2;P2;SDS_P1;SDS_P2;PMS_P1;PMS_P2;Temp;Humidity;BMP_temperature;BMP_pressure;BME280_temperature;BME280_humidity;BME280_pressure;Samples;Min_cycle;Max_cycle;Signal;HPM_P1;HPM_P2
2022/04/17 00:01:49;;;;;;;3.57;0.73;;;13.90;64.10;;;;;;5068566;28;20205;-79
2022/04/17 00:04:17;;;;;;;2.43;0.60;;;13.80;63.80;;;;;;5078528;28;20211;-80
2022/04/17 00:06:44;;;;;;;1.23;0.90;;;13.80;63.60;;;;;;5064772;28;20213;-80
2022/04/17 00:09:11;;;;;;;0.70;0.60;;;13.70;62.90;;;;;;5059258;28;20283;-81
2022/04/17 00:11:41;;;;;;;0.67;0.67;;;13.70;62.90;;;;;;5078314;28;20205;-80
2022/04/17 00:14:11;;;;;;;1.73;0.93;;;13.70;62.50;;;;;;5061705;28;20644;-80
2022/04/17 00:16:40;;;;;;;1.20;0.83;;;13.70;62.50;;;;;;5063032;28;20654;-80
2022/04/17 00:19:08;;;;;;;1.30;0.93;;;13.60;61.40;;;;;;5060338;28;20223;-80
2022/04/17 00:21:36;;;;;;;2.70;0.90;;;13.70;60.90;;;;;;5071288;28;20200;-80
2022/04/17 00:24:04;;;;;;;1.10;0.80;;;13.70;60.30;;;;;;5065076;28;20314;-80
2022/04/17 00:26:32;;;;;;;1.53;0.90;;;13.70;59.00;;;;;;5067329;28;20242;-80
2022/04/17 00:29:00;;;;;;;2.20;1.47;;;13.70;58.70;;;;;;5083256;28;20222;-79
2022/04/17 00:31:30;;;;;;;2.03;0.90;;;13.70;57.80;;;;;;5062378;28;20190;-79
2022/04/17 00:34:00;;;;;;;2.30;0.90;;;13.70;57.10;;;;;;5067777;28;20558;-79
2022/04/17 00:36:30;;;;;;;4.50;0.90;;;13.70;56.40;;;;;;5066934;28;20547;-79
2022/04/17 00:38:58;;;;;;;1.77;0.97;;;13.70;55.80;;;;;;5061802;28;20215;-79
2022/04/17 00:41:25;;;;;;;2.70;1.00;;;13.70;55.70;;;;;;5073954;28;20234;-79
2022/04/17 00:43:52;;;;;;;6.40;1.20;;;13.70;55.30;;;;;;5066037;28;20216;-79
2022/04/17 00:46:20;;;;;;;2.43;1.37;;;13.60;55.10;;;;;;5064372;28;20250;-79
2022/04/17 00:48:48;;;;;;;6.07;1.43;;;13.60;55.20;;;;;;5057700;28;20689;-79
2022/04/17 00:51:16;;;;;;;2.53;0.90;;;13.60;55.60;;;;;;5064244;28;20219;-79
2022/04/17 00:53:45;;;;;;;2.73;1.30;;;13.60;54.90;;;;;;5069191;28;20205;-79
2022/04/17 00:56:12;;;;;;;1.73;1.20;;;13.60;54.80;;;;;;5074310;28;20638;-80
2022/04/17 00:58:39;;;;;;;1.60;1.40;;;13.50;54.20;;;;;;5075219;28;20221;-80
2022/04/17 01:01:07;;;;;;;2.47;1.10;;;13.50;54.40;;;;;;5065604;28;20201;-81
2022/04/17 01:03:34;;;;;;;3.63;1.30;;;13.60;54.70;;;;;;5063156;28;20207;-80
2022/04/17 01:06:02;;;;;;;2.87;1.47;;;13.50;54.90;;;;;;5064347;28;20220;-80
2022/04/17 01:08:30;;;;;;;4.27;1.57;;;13.50;54.90;;;;;;5067510;28;20238;-80
2022/04/17 01:10:58;;;;;;;3.53;1.67;;;13.50;55.00;;;;;;5067782;28;20675;-81
2022/04/17 01:13:26;;;;;;;5.07;2.30;;;13.50;55.20;;;;;;5063821;28;20213;-80
2022/04/17 01:15:54;;;;;;;3.53;1.30;;;13.50;55.10;;;;;;5081268;28;20233;-80
2022/04/17 01:18:21;;;;;;;4.53;1.73;;;13.40;54.80;;;;;;5067479;28;20203;-81
2022/04/17 01:20:48;;;;;;;2.70;1.63;;;13.40;54.40;;;;;;5081292;28;20212;-80
2022/04/17 01:28:47;;;;;;;4.00;2.07;;;13.30;54.00;;;;;;5066839;28;20245;-79
2022/04/17 01:31:14;;;;;;;4.03;1.63;;;13.30;54.20;;;;;;5070744;28;20206;-79
2022/04/17 01:33:46;;;;;;;3.90;1.57;;;13.30;54.00;;;;;;5085041;28;20210;-79
2022/04/17 01:36:13;;;;;;;4.20;2.17;;;13.20;54.00;;;;;;5065841;28;20354;-79
2022/04/17 01:38:40;;;;;;;5.47;1.63;;;13.20;54.00;;;;;;5069232;28;20204;-80
2022/04/17 01:41:07;;;;;;;3.13;1.80;;;13.20;54.50;;;;;;5068112;28;20216;-80
2022/04/17 01:43:34;;;;;;;7.73;1.57;;;13.20;54.90;;;;;;5064484;28;20202;-81
2022/04/17 01:46:02;;;;;;;3.87;1.90;;;13.20;54.70;;;;;;5068048;28;20548;-79
2022/04/17 01:48:29;;;;;;;4.60;2.03;;;13.10;54.80;;;;;;5074597;28;20256;-80
2022/04/17 01:50:58;;;;;;;3.67;1.70;;;13.10;55.10;;;;;;5064327;28;20214;-80
2022/04/17 01:53:25;;;;;;;5.13;2.57;;;13.10;55.30;;;;;;5067344;28;20221;-80
2022/04/17 01:55:52;;;;;;;2.83;1.50;;;13.00;55.30;;;;;;5080422;28;20203;-80
2022/04/17 01:58:20;;;;;;;1.93;1.70;;;13.00;55.60;;;;;;5052786;28;20220;-81
2022/04/17 02:00:47;;;;;;;8.57;2.13;;;13.00;55.80;;;;;;5072547;28;20253;-80
2022/04/17 02:03:14;;;;;;;5.90;1.87;;;13.00;55.90;;;;;;5042403;28;20206;-79
2022/04/17 02:05:41;;;;;;;4.53;2.00;;;13.00;55.50;;;;;;5072794;28;20302;-80
2022/04/17 02:08:09;;;;;;;7.77;2.80;;;12.90;55.50;;;;;;5080085;28;20254;-79
2022/04/17 02:10:36;;;;;;;7.40;2.70;;;12.80;55.90;;;;;;5071308;28;20310;-80
2022/04/17 02:13:04;;;;;;;3.77;2.03;;;12.80;56.20;;;;;;5066555;28;20688;-81
2022/04/17 02:15:31;;;;;;;5.43;2.23;;;12.70;56.20;;;;;;5077686;28;20638;-80
2022/04/17 02:17:59;;;;;;;4.87;2.23;;;12.70;55.80;;;;;;5078036;28;20564;-80
2022/04/17 02:20:27;;;;;;;7.77;2.17;;;12.60;54.00;;;;;;5073791;28;20199;-80
2022/04/17 02:22:56;;;;;;;11.10;1.93;;;12.60;54.20;;;;;;5062908;28;20202;-81
2022/04/17 02:25:25;;;;;;;5.23;1.90;;;12.50;53.90;;;;;;5068783;28;20276;-80
2022/04/17 02:27:52;;;;;;;5.33;1.97;;;12.50;53.80;;;;;;5066575;28;20221;-80
2022/04/17 02:30:20;;;;;;;3.57;1.90;;;12.40;53.60;;;;;;5066762;28;20224;-81
2022/04/17 02:32:47;;;;;;;8.40;2.43;;;12.40;54.30;;;;;;5079977;28;20199;-80
2022/04/17 02:35:14;;;;;;;4.87;2.17;;;12.30;54.90;;;;;;5068531;28;20204;-79
2022/04/17 02:37:42;;;;;;;7.53;1.90;;;12.30;54.00;;;;;;5071434;28;20687;-79
2022/04/17 02:40:09;;;;;;;6.60;2.60;;;12.20;53.90;;;;;;5072494;28;20299;-81
2022/04/17 02:42:37;;;;;;;5.83;1.80;;;12.10;53.80;;;;;;5065713;28;20278;-80
2022/04/17 02:45:05;;;;;;;4.40;1.80;;;12.10;53.60;;;;;;5070799;28;20212;-81
2022/04/17 02:47:44;;;;;;;5.80;2.30;;;12.00;53.60;;;;;;5067942;28;20650;-80
2022/04/17 02:50:16;;;;;;;4.07;1.97;;;11.90;54.10;;;;;;5068167;28;20242;-81
2022/04/17 02:52:44;;;;;;;6.87;2.10;;;11.80;54.50;;;;;;5070976;28;20292;-80
2022/04/17 02:55:12;;;;;;;10.50;2.60;;;11.70;54.40;;;;;;5069357;28;20549;-80
2022/04/17 02:57:40;;;;;;;9.13;2.17;;;11.70;54.20;;;;;;5072531;28;20225;-80
2022/04/17 03:00:10;;;;;;;4.27;2.10;;;11.60;54.30;;;;;;5088574;28;20208;-81
2022/04/17 03:05:37;;;;;;;4.77;2.10;;;11.50;52.80;;;;;;5067631;28;20201;-81
2022/04/17 03:08:13;;;;;;;8.73;2.73;;;11.50;53.50;;;;;;5064594;28;20257;-81
2022/04/17 03:10:47;;;;;;;6.70;2.37;;;11.40;54.20;;;;;;5073170;28;20236;-78
2022/04/17 03:13:16;;;;;;;5.97;2.20;;;11.40;54.30;;;;;;5059772;28;20641;-78
2022/04/17 03:15:43;;;;;;;3.93;2.07;;;11.30;54.40;;;;;;5076782;28;20186;-78
2022/04/17 03:18:10;;;;;;;8.57;2.30;;;11.30;54.60;;;;;;5064634;28;20263;-79
2022/04/17 03:20:38;;;;;;;8.80;1.93;;;11.20;54.50;;;;;;5070620;28;20226;-78
2022/04/17 03:23:06;;;;;;;7.40;2.77;;;11.20;54.60;;;;;;5073507;28;20595;-78
2022/04/17 03:25:33;;;;;;;4.50;2.13;;;11.20;54.30;;;;;;5081332;28;20203;-78
2022/04/17 03:28:01;;;;;;;5.27;2.50;;;11.20;54.40;;;;;;5065699;28;20201;-79
2022/04/17 03:30:28;;;;;;;8.00;2.90;;;11.10;54.80;;;;;;5063117;28;20638;-78
2022/04/17 03:32:56;;;;;;;7.57;2.20;;;11.10;54.90;;;;;;5067821;28;20218;-79
2022/04/17 03:35:24;;;;;;;7.07;2.57;;;11.10;55.80;;;;;;5088689;28;20204;-79
2022/04/17 03:37:53;;;;;;;2.73;2.43;;;11.10;56.20;;;;;;5080970;28;20282;-79
2022/04/17 03:40:20;;;;;;;7.83;2.87;;;11.00;56.60;;;;;;5082971;28;20226;-82
2022/04/17 03:42:47;;;;;;;10.30;2.60;;;11.00;56.40;;;;;;5064360;28;20203;-79
2022/04/17 03:45:16;;;;;;;3.90;2.33;;;10.90;56.10;;;;;;5080665;28;20210;-78
2022/04/17 03:47:44;;;;;;;5.00;2.13;;;10.80;56.20;;;;;;5071007;28;20204;-79
2022/04/17 03:50:15;;;;;;;6.83;2.10;;;10.70;56.40;;;;;;5081724;28;20210;-79
2022/04/17 03:52:45;;;;;;;5.37;2.47;;;10.70;56.60;;;;;;5071415;28;20212;-81
2022/04/17 03:55:12;;;;;;;6.77;1.97;;;10.60;57.10;;;;;;5065997;28;20199;-80
2022/04/17 03:57:40;;;;;;;5.90;2.70;;;10.50;57.80;;;;;;5081099;28;20221;-79
2022/04/17 04:00:12;;;;;;;9.60;3.07;;;10.40;58.40;;;;;;5081724;28;20214;-78
2022/04/17 04:02:41;;;;;;;9.23;2.23;;;10.40;59.10;;;;;;5069973;28;20202;-78
2022/04/17 04:05:09;;;;;;;5.27;2.57;;;10.30;59.40;;;;;;5067342;28;20202;-79
2022/04/17 04:07:37;;;;;;;9.10;2.53;;;10.20;59.80;;;;;;5079095;28;20254;-81
2022/04/17 04:10:07;;;;;;;5.63;2.63;;;10.20;60.00;;;;;;5066196;28;20304;-78
2022/04/17 04:12:35;;;;;;;4.93;2.10;;;10.10;60.00;;;;;;5071466;28;20255;-79
2022/04/17 04:15:04;;;;;;;6.03;2.47;;;10.00;59.80;;;;;;5083853;28;20629;-78
2022/04/17 04:17:34;;;;;;;3.47;1.90;;;9.90;59.60;;;;;;5065732;28;20276;-78
2022/04/17 04:20:02;;;;;;;6.03;2.57;;;9.90;59.40;;;;;;5076998;28;20265;-78
2022/04/17 04:22:30;;;;;;;5.50;2.37;;;9.80;59.50;;;;;;5072220;28;20210;-78
2022/04/17 04:24:57;;;;;;;10.77;2.93;;;9.70;59.20;;;;;;5069206;28;20205;-78
2022/04/17 04:30:10;;;;;;;3.80;2.30;;;9.60;59.50;;;;;;5076444;28;20222;-78
2022/04/17 04:32:37;;;;;;;4.40;1.90;;;9.50;58.90;;;;;;5076601;28;20637;-78
2022/04/17 04:35:05;;;;;;;3.10;2.20;;;9.40;58.70;;;;;;5063584;28;20514;-78
2022/04/17 04:37:32;;;;;;;6.63;2.00;;;9.40;58.50;;;;;;5067625;28;20237;-79
2022/04/17 04:40:00;;;;;;;5.50;2.00;;;9.40;58.40;;;;;;5075797;28;20226;-78
2022/04/17 04:42:27;;;;;;;4.17;2.10;;;9.40;58.20;;;;;;5069855;28;20225;-81
2022/04/17 04:47:42;;;;;;;6.70;2.87;;;9.40;58.00;;;;;;5063357;28;20206;-78
2022/04/17 04:50:09;;;;;;;7.80;2.80;;;9.50;57.90;;;;;;5067740;28;20224;-80
2022/04/17 04:52:37;;;;;;;3.57;2.10;;;9.50;58.00;;;;;;5074794;28;20206;-78
2022/04/17 04:55:05;;;;;;;6.67;2.27;;;9.60;58.30;;;;;;5064943;28;20554;-79
2022/04/17 04:57:35;;;;;;;4.90;2.23;;;9.60;58.60;;;;;;5062186;28;20206;-79
2022/04/17 05:00:08;;;;;;;7.60;2.17;;;9.60;58.70;;;;;;5064507;28;20190;-81
2022/04/17 05:02:37;;;;;;;5.70;2.60;;;9.70;58.70;;;;;;5057864;28;20205;-79
2022/04/17 05:05:08;;;;;;;8.13;2.30;;;9.70;58.30;;;;;;5059069;28;20417;-78
2022/04/17 05:07:36;;;;;;;6.23;2.50;;;9.70;58.50;;;;;;5062640;28;20242;-77
2022/04/17 05:10:05;;;;;;;3.20;1.77;;;9.80;58.60;;;;;;5060568;28;20259;-77
2022/04/17 05:12:32;;;;;;;7.37;2.23;;;9.90;58.70;;;;;;5062429;28;20253;-78
2022/04/17 05:15:00;;;;;;;4.00;1.53;;;10.10;58.50;;;;;;5062580;28;20209;-81
2022/04/17 05:17:27;;;;;;;5.50;2.00;;;10.50;57.70;;;;;;5066946;28;20249;-78
2022/04/17 05:19:54;;;;;;;4.70;2.40;;;11.20;55.90;;;;;;5066407;28;20716;-79
2022/04/17 05:22:30;;;;;;;5.63;1.93;;;12.00;53.50;;;;;;5071559;28;20223;-81
2022/04/17 05:24:58;;;;;;;9.20;2.57;;;12.80;51.10;;;;;;5060413;28;20310;-80
2022/04/17 05:27:25;;;;;;;8.20;3.07;;;13.40;49.90;;;;;;5071488;28;20601;-78
2022/04/17 05:29:52;;;;;;;5.13;2.40;;;13.70;49.00;;;;;;5076318;28;20208;-80
2022/04/17 05:32:19;;;;;;;7.10;2.10;;;13.80;48.80;;;;;;5069984;28;20265;-81
2022/04/17 05:34:46;;;;;;;7.43;2.00;;;13.80;48.80;;;;;;5064272;28;20642;-77
2022/04/17 05:37:14;;;;;;;6.97;2.43;;;13.60;48.90;;;;;;5069807;28;20285;-81
2022/04/17 05:39:41;;;;;;;2.50;1.57;;;13.40;49.40;;;;;;5064865;28;20221;-81
2022/04/17 05:42:08;;;;;;;5.07;2.03;;;13.10;50.20;;;;;;5069207;28;20198;-78
2022/04/17 05:44:37;;;;;;;5.63;2.50;;;12.90;51.00;;;;;;5082302;28;20198;-80
2022/04/17 05:47:04;;;;;;;5.60;2.10;;;12.80;51.20;;;;;;5077455;28;20288;-80
2022/04/17 05:49:31;;;;;;;4.50;2.10;;;12.70;51.90;;;;;;5070002;28;20244;-80
2022/04/17 05:52:00;;;;;;;7.63;2.13;;;12.70;51.90;;;;;;5064142;28;20230;-81
2022/04/17 05:54:28;;;;;;;4.20;1.80;;;12.60;51.90;;;;;;5074419;28;20266;-80
2022/04/17 05:56:56;;;;;;;3.50;2.10;;;12.60;51.60;;;;;;5070440;28;20230;-82
2022/04/17 05:59:25;;;;;;;4.83;2.17;;;12.60;51.90;;;;;;5069770;28;20288;-81
2022/04/17 06:01:57;;;;;;;4.17;2.03;;;12.70;51.90;;;;;;5066596;28;20272;-81
2022/04/17 06:04:25;;;;;;;3.23;2.13;;;12.70;51.80;;;;;;5065435;28;20206;-81
2022/04/17 06:06:52;;;;;;;3.57;2.20;;;12.80;51.70;;;;;;5072351;28;20637;-80
2022/04/17 06:09:20;;;;;;;3.60;1.80;;;12.80;51.40;;;;;;5068674;28;20238;-80
2022/04/17 06:11:47;;;;;;;5.63;1.90;;;12.90;51.70;;;;;;5049934;28;20664;-80
2022/04/17 06:14:14;;;;;;;7.83;2.17;;;12.90;51.10;;;;;;5061931;28;20219;-80
2022/04/17 06:16:42;;;;;;;3.93;2.10;;;13.00;49.90;;;;;;5071950;28;20228;-79
2022/04/17 06:19:09;;;;;;;3.37;1.83;;;12.90;50.50;;;;;;5084774;28;20261;-80
2022/04/17 06:21:40;;;;;;;4.30;2.17;;;13.00;51.20;;;;;;5074273;28;20212;-80
2022/04/17 06:24:08;;;;;;;4.70;1.90;;;13.00;51.00;;;;;;5050936;28;20233;-79
2022/04/17 06:26:36;;;;;;;6.40;1.93;;;13.10;51.50;;;;;;5071098;28;20239;-80
2022/04/17 06:29:07;;;;;;;4.70;1.83;;;13.20;51.10;;;;;;5084683;28;20237;-80
2022/04/17 06:31:35;;;;;;;5.13;2.30;;;13.20;49.60;;;;;;5062277;28;20209;-81
2022/04/17 06:34:02;;;;;;;3.00;2.00;;;13.20;49.20;;;;;;5065192;28;20645;-80
2022/04/17 06:36:29;;;;;;;5.40;2.07;;;13.20;49.80;;;;;;5065398;28;20205;-81
2022/04/17 06:38:57;;;;;;;5.43;1.63;;;13.30;51.00;;;;;;5078716;28;20215;-81
2022/04/17 06:41:24;;;;;;;7.50;2.57;;;13.40;50.70;;;;;;5070899;28;20209;-81
2022/04/17 06:43:52;;;;;;;4.57;2.50;;;13.50;49.80;;;;;;5064672;28;20273;-80
2022/04/17 06:46:19;;;;;;;5.70;2.13;;;13.70;49.20;;;;;;5069378;28;20201;-77
2022/04/17 06:48:47;;;;;;;3.77;2.13;;;13.70;48.40;;;;;;5080281;28;20212;-81
2022/04/17 06:51:15;;;;;;;5.47;1.93;;;13.80;47.60;;;;;;5069653;28;20217;-81
2022/04/17 06:53:43;;;;;;;7.27;1.80;;;13.80;48.20;;;;;;5074056;28;20538;-81
2022/04/17 06:56:12;;;;;;;4.23;1.87;;;13.90;47.30;;;;;;5082596;28;20203;-80
2022/04/17 06:58:40;;;;;;;5.17;2.00;;;13.90;47.00;;;;;;5073038;28;20199;-80
2022/04/17 07:01:07;;;;;;;3.10;1.70;;;13.90;46.40;;;;;;5063526;28;20303;-80
2022/04/17 07:03:35;;;;;;;3.37;1.47;;;14.00;44.90;;;;;;5065215;28;20235;-80
2022/04/17 07:06:02;;;;;;;4.87;1.80;;;14.00;45.60;;;;;;5065608;28;20245;-79
2022/04/17 07:08:29;;;;;;;5.33;1.60;;;14.10;45.10;;;;;;5084036;28;20235;-81
2022/04/17 07:10:57;;;;;;;3.43;1.73;;;14.10;43.60;;;;;;5084311;28;20247;-80
2022/04/17 07:13:25;;;;;;;2.43;1.73;;;14.20;45.40;;;;;;5070037;28;20202;-80
2022/04/17 07:15:53;;;;;;;3.17;1.53;;;14.20;45.90;;;;;;5071318;28;20633;-79
2022/04/17 07:18:21;;;;;;;3.53;1.37;;;14.30;44.60;;;;;;5065595;28;20223;-79
2022/04/17 07:20:50;;;;;;;3.63;1.60;;;14.40;42.70;;;;;;5082744;28;20285;-80
2022/04/17 07:23:18;;;;;;;10.00;2.10;;;14.40;43.10;;;;;;5085790;28;20219;-79
2022/04/17 07:25:45;;;;;;;6.20;2.23;;;14.50;42.70;;;;;;5070121;28;20268;-79
2022/04/17 07:28:12;;;;;;;2.70;1.53;;;14.50;43.20;;;;;;5062737;28;20207;-81
2022/04/17 07:30:43;;;;;;;4.20;2.50;;;14.60;43.50;;;;;;5063951;28;20239;-79
2022/04/17 07:33:14;;;;;;;4.10;2.13;;;14.70;42.60;;;;;;5070158;28;20783;-80
2022/04/17 07:35:44;;;;;;;5.60;1.47;;;14.70;41.60;;;;;;5059652;28;20230;-81
2022/04/17 07:38:11;;;;;;;4.27;1.90;;;14.80;43.30;;;;;;5069448;28;20211;-78
2022/04/17 07:40:39;;;;;;;3.17;1.80;;;14.80;41.70;;;;;;5064371;28;20206;-78
2022/04/17 07:43:06;;;;;;;5.00;1.70;;;14.80;40.60;;;;;;5055461;28;20209;-80
2022/04/17 07:45:34;;;;;;;3.60;2.07;;;14.80;41.10;;;;;;5065615;28;20242;-78
2022/04/17 07:48:02;;;;;;;4.13;1.73;;;14.80;40.80;;;;;;5064798;28;20268;-79
2022/04/17 07:50:31;;;;;;;4.53;1.87;;;14.80;41.30;;;;;;5073542;28;20254;-79
2022/04/17 07:53:00;;;;;;;3.37;1.60;;;14.90;42.40;;;;;;5064898;28;20638;-78
2022/04/17 07:55:28;;;;;;;4.73;1.80;;;15.00;40.80;;;;;;5062579;28;20208;-78
2022/04/17 07:58:11;;;;;;;12.70;1.67;;;15.00;40.70;;;;;;5063342;28;20214;-79
2022/04/17 08:00:57;;;;;;;4.23;2.00;;;15.10;41.30;;;;;;5065681;28;20230;-80
2022/04/17 08:06:05;;;;;;;5.97;2.00;;;15.20;42.10;;;;;;5071978;28;20292;-79
2022/04/17 08:08:37;;;;;;;3.60;1.90;;;15.30;42.30;;;;;;5078642;28;20229;-80
2022/04/17 08:11:06;;;;;;;7.17;1.70;;;15.50;43.00;;;;;;5067207;28;20220;-80
2022/04/17 08:13:35;;;;;;;2.57;1.63;;;15.70;40.50;;;;;;5078004;28;20206;-81
2022/04/17 08:16:04;;;;;;;6.80;1.77;;;15.80;41.40;;;;;;5061836;28;20205;-81
2022/04/17 08:18:33;;;;;;;3.37;2.07;;;15.80;41.10;;;;;;5067392;28;20204;-81
2022/04/17 08:21:00;;;;;;;3.40;1.67;;;15.90;41.30;;;;;;5079939;28;20202;-79
2022/04/17 08:23:28;;;;;;;5.43;1.80;;;16.00;42.00;;;;;;5066671;28;20256;-78
2022/04/17 08:25:55;;;;;;;2.80;1.60;;;16.20;40.00;;;;;;5068265;28;20255;-80
2022/04/17 08:28:24;;;;;;;4.33;1.60;;;16.30;39.80;;;;;;5063202;28;20645;-81
2022/04/17 08:30:52;;;;;;;2.50;1.43;;;16.40;39.00;;;;;;5075396;28;20326;-80
2022/04/17 08:33:19;;;;;;;4.13;1.63;;;16.30;37.10;;;;;;5065832;28;20205;-80
2022/04/17 08:35:48;;;;;;;2.80;1.47;;;16.20;38.70;;;;;;5079656;28;20835;-80
2022/04/17 08:38:19;;;;;;;3.27;1.50;;;16.20;40.30;;;;;;5079589;28;20229;-80
2022/04/17 08:40:49;;;;;;;2.97;1.50;;;16.30;39.30;;;;;;5047787;28;20209;-81
2022/04/17 08:43:21;;;;;;;5.57;1.70;;;16.40;38.40;;;;;;5066352;28;20225;-82
2022/04/17 08:45:53;;;;;;;7.83;1.53;;;16.50;38.90;;;;;;5067682;28;20219;-78
2022/04/17 08:48:22;;;;;;;4.50;1.40;;;16.50;37.20;;;;;;5065477;28;20276;-79
2022/04/17 08:50:55;;;;;;;5.20;2.00;;;16.50;38.10;;;;;;5063766;28;20275;-80
2022/04/17 08:53:24;;;;;;;2.63;1.90;;;16.50;37.90;;;;;;5065100;28;20197;-80
2022/04/17 08:55:53;;;;;;;4.03;1.50;;;16.60;37.40;;;;;;5061436;28;20194;-79
2022/04/17 08:58:22;;;;;;;2.67;1.47;;;16.80;36.90;;;;;;5060834;28;20844;-79
2022/04/17 09:00:50;;;;;;;4.67;1.40;;;16.80;36.60;;;;;;5058561;28;20202;-80
2022/04/17 09:03:17;;;;;;;2.50;1.37;;;16.80;37.00;;;;;;5063009;28;20541;-78
2022/04/17 09:05:45;;;;;;;3.17;1.60;;;16.90;36.00;;;;;;5074216;28;20202;-81
2022/04/17 09:08:21;;;;;;;1.97;1.60;;;17.00;35.10;;;;;;5075761;28;20265;-81
2022/04/17 09:10:53;;;;;;;6.83;1.50;;;17.10;36.10;;;;;;5074529;28;20225;-80
2022/04/17 09:13:33;;;;;;;7.20;1.57;;;17.20;34.00;;;;;;5063043;28;20567;-81
2022/04/17 09:16:02;;;;;;;3.23;1.60;;;17.20;34.40;;;;;;5045640;28;20225;-81
2022/04/17 09:18:33;;;;;;;3.27;1.40;;;17.20;35.00;;;;;;5075495;28;20206;-79
2022/04/17 09:21:03;;;;;;;2.90;1.50;;;17.20;35.90;;;;;;5068937;28;20201;-81
2022/04/17 09:23:33;;;;;;;7.57;1.50;;;17.30;34.90;;;;;;5064211;28;20209;-80
2022/04/17 09:26:01;;;;;;;3.00;1.33;;;17.40;35.10;;;;;;5059647;28;20208;-79
2022/04/17 09:28:34;;;;;;;9.73;1.93;;;17.50;33.70;;;;;;5059327;28;20202;-80
2022/04/17 09:31:12;;;;;;;4.17;1.30;;;17.50;33.50;;;;;;5060417;28;20265;-78
2022/04/17 09:33:41;;;;;;;3.37;1.70;;;17.50;31.80;;;;;;5062215;28;20201;-79
2022/04/17 09:36:09;;;;;;;3.37;1.53;;;17.30;32.80;;;;;;5065316;28;20648;-80
2022/04/17 09:38:42;;;;;;;4.67;1.97;;;17.30;32.30;;;;;;5064740;28;20207;-79
2022/04/17 09:41:13;;;;;;;3.67;1.50;;;17.30;31.50;;;;;;5066616;28;20209;-80
2022/04/17 09:43:43;;;;;;;3.00;1.70;;;17.20;33.90;;;;;;5060082;28;20194;-79
2022/04/17 09:46:11;;;;;;;2.20;1.60;;;17.20;33.10;;;;;;5076971;28;20210;-80
2022/04/17 09:48:40;;;;;;;2.33;1.50;;;17.20;33.30;;;;;;5063473;28;20208;-80
2022/04/17 09:51:22;;;;;;;4.37;1.50;;;17.30;33.90;;;;;;5070880;28;20202;-80
2022/04/17 09:54:05;;;;;;;4.87;1.37;;;17.50;34.10;;;;;;5066874;28;20198;-81
2022/04/17 09:56:40;;;;;;;3.03;1.67;;;17.60;33.00;;;;;;5082533;28;20198;-79
2022/04/17 09:59:22;;;;;;;3.70;1.50;;;17.70;30.10;;;;;;5080317;28;20197;-80
2022/04/17 10:01:54;;;;;;;2.13;1.40;;;17.60;32.30;;;;;;5068064;28;20719;-81
2022/04/17 10:04:24;;;;;;;2.53;1.53;;;17.60;29.70;;;;;;5072916;28;20253;-79
2022/04/17 10:06:59;;;;;;;3.53;1.70;;;17.60;31.60;;;;;;5068695;28;20198;-81
2022/04/17 10:09:26;;;;;;;3.50;1.50;;;17.70;31.50;;;;;;5082060;28;20197;-80
2022/04/17 10:11:56;;;;;;;2.07;1.63;;;17.80;31.60;;;;;;5077386;28;20222;-81
2022/04/17 10:14:25;;;;;;;5.73;1.70;;;17.80;31.40;;;;;;5063746;28;20292;-81
2022/04/17 10:16:55;;;;;;;2.43;1.30;;;17.70;32.10;;;;;;5065002;28;20280;-78
2022/04/17 10:19:24;;;;;;;5.93;1.80;;;17.80;30.50;;;;;;5064026;28;20222;-81
2022/04/17 10:21:52;;;;;;;7.70;1.57;;;17.70;32.00;;;;;;5060792;28;20282;-81
2022/04/17 10:24:23;;;;;;;3.10;2.10;;;17.80;31.80;;;;;;5082027;28;20224;-79
2022/04/17 10:26:52;;;;;;;2.57;1.60;;;17.90;32.90;;;;;;5065052;28;20203;-79
2022/04/17 10:29:34;;;;;;;2.83;1.37;;;18.00;31.20;;;;;;5079472;28;20221;-80
2022/04/17 10:32:31;;;;;;;2.67;1.40;;;18.00;31.30;;;;;;5068652;28;20635;-79
2022/04/17 10:35:09;;;;;;;6.10;1.83;;;18.00;30.90;;;;;;5067562;28;20229;-80
2022/04/17 10:38:19;;;;;;;5.77;1.40;;;18.00;31.20;;;;;;5079072;28;20225;-80
2022/04/17 10:41:09;;;;;;;5.03;1.60;;;18.00;32.40;;;;;;5047716;28;20198;-81
2022/04/17 10:43:45;;;;;;;2.83;1.50;;;18.10;31.40;;;;;;5062174;28;20306;-79
2022/04/17 10:46:20;;;;;;;8.70;1.97;;;18.00;32.20;;;;;;5067667;28;20217;-81
2022/04/17 10:48:52;;;;;;;3.33;1.40;;;18.00;29.90;;;;;;5079135;28;20305;-79
2022/04/17 10:51:20;;;;;;;2.93;1.60;;;18.00;31.90;;;;;;5065067;28;20237;-80
2022/04/17 10:54:07;;;;;;;3.67;1.70;;;18.00;29.20;;;;;;5065232;28;20662;-79
2022/04/17 10:56:53;;;;;;;5.70;1.40;;;17.90;31.10;;;;;;5064680;28;20193;-81
2022/04/17 10:59:28;;;;;;;3.77;1.53;;;18.00;32.70;;;;;;5074872;28;20206;-79
2022/04/17 11:02:22;;;;;;;3.77;1.57;;;18.00;32.50;;;;;;5078308;28;20194;-80
2022/04/17 11:04:57;;;;;;;3.70;1.77;;;18.00;30.00;;;;;;5068295;28;20209;-80
2022/04/17 11:07:30;;;;;;;6.10;1.70;;;18.00;31.80;;;;;;5062887;28;20248;-81
2022/04/17 11:10:20;;;;;;;5.60;1.70;;;17.90;32.40;;;;;;5065338;28;20205;-79
2022/04/17 11:12:55;;;;;;;2.93;1.50;;;18.00;32.90;;;;;;5063670;28;20203;-80
2022/04/17 11:15:28;;;;;;;4.93;1.90;;;18.20;32.80;;;;;;5060099;28;20594;-80
2022/04/17 11:18:00;;;;;;;2.10;1.50;;;18.30;32.90;;;;;;5063076;28;20274;-80
2022/04/17 11:20:29;;;;;;;2.87;1.40;;;18.50;32.40;;;;;;5064225;28;20823;-79
2022/04/17 11:22:57;;;;;;;3.87;1.20;;;18.60;31.10;;;;;;5069601;28;20214;-81
2022/04/17 11:25:27;;;;;;;2.60;1.40;;;18.60;31.70;;;;;;5075489;28;20207;-79
2022/04/17 11:28:02;;;;;;;1.60;1.30;;;18.60;31.50;;;;;;5076440;28;20224;-80
2022/04/17 11:30:54;;;;;;;2.73;1.43;;;18.50;29.80;;;;;;5073342;28;20245;-79
2022/04/17 11:33:24;;;;;;;8.23;1.40;;;18.50;28.30;;;;;;5059212;28;20213;-79
2022/04/17 11:35:53;;;;;;;2.87;1.67;;;18.30;28.50;;;;;;5070446;28;20637;-80
2022/04/17 11:38:20;;;;;;;4.83;1.90;;;18.30;30.70;;;;;;5055530;28;20216;-80
2022/04/17 11:40:49;;;;;;;6.97;1.60;;;18.20;28.50;;;;;;5077124;28;20214;-80
2022/04/17 11:43:18;;;;;;;2.33;1.60;;;18.10;30.00;;;;;;5077199;28;20212;-80
2022/04/17 11:45:47;;;;;;;2.87;1.70;;;18.00;30.00;;;;;;5076869;28;20210;-80
2022/04/17 11:48:17;;;;;;;3.33;1.50;;;18.00;30.60;;;;;;5068294;28;20222;-78
2022/04/17 11:50:45;;;;;;;3.33;1.50;;;18.00;29.10;;;;;;5063520;28;20288;-81
2022/04/17 11:53:14;;;;;;;1.97;1.60;;;18.00;30.50;;;;;;5066472;28;20264;-81
2022/04/17 11:55:46;;;;;;;1.80;1.33;;;18.00;30.70;;;;;;5074124;28;20223;-80
2022/04/17 11:58:25;;;;;;;1.70;1.47;;;18.00;30.20;;;;;;5064716;28;20256;-79
2022/04/17 12:01:01;;;;;;;4.27;1.83;;;18.00;29.50;;;;;;5080133;28;20284;-80
2022/04/17 12:03:38;;;;;;;3.80;1.23;;;18.10;30.10;;;;;;5067261;28;20198;-80
2022/04/17 12:06:09;;;;;;;2.73;1.60;;;18.20;30.50;;;;;;5066539;28;20633;-79
2022/04/17 12:08:38;;;;;;;4.23;1.30;;;18.20;30.00;;;;;;5058977;28;20262;-79
2022/04/17 12:11:07;;;;;;;3.13;1.67;;;18.30;29.70;;;;;;5065656;28;20209;-79
2022/04/17 12:13:35;;;;;;;3.40;1.83;;;18.40;30.80;;;;;;5060282;28;20608;-81
2022/04/17 12:16:04;;;;;;;4.87;2.07;;;18.50;30.90;;;;;;5072998;28;20206;-79
2022/04/17 12:18:32;;;;;;;2.70;2.10;;;18.50;30.00;;;;;;5061325;28;20540;-81
2022/04/17 12:21:02;;;;;;;2.17;1.30;;;18.60;30.20;;;;;;5076516;28;20215;-81
2022/04/17 12:23:32;;;;;;;3.73;1.50;;;18.60;30.00;;;;;;5065001;28;20226;-80
2022/04/17 12:26:03;;;;;;;4.13;1.30;;;18.60;30.20;;;;;;5065565;28;20234;-80
2022/04/17 12:28:31;;;;;;;3.33;1.63;;;18.60;30.90;;;;;;5062444;28;20574;-82
2022/04/17 12:30:58;;;;;;;2.93;1.20;;;18.70;29.50;;;;;;5076923;28;20224;-80
2022/04/17 12:33:27;;;;;;;1.87;1.20;;;18.60;28.70;;;;;;5060375;28;20221;-80
2022/04/17 12:36:22;;;;;;;3.57;1.70;;;18.60;29.80;;;;;;5064594;28;20199;-79
2022/04/17 12:38:56;;;;;;;2.50;1.30;;;18.60;29.60;;;;;;5062869;28;20235;-81
2022/04/17 12:41:26;;;;;;;1.93;1.50;;;18.60;29.30;;;;;;5066877;28;20283;-79
2022/04/17 12:43:55;;;;;;;1.93;1.27;;;18.70;28.30;;;;;;5064023;28;20232;-79
2022/04/17 12:46:30;;;;;;;3.53;1.50;;;18.70;28.60;;;;;;5062635;28;20216;-80
2022/04/17 12:49:18;;;;;;;2.07;1.07;;;18.60;27.80;;;;;;5060909;28;20264;-80
2022/04/17 12:51:59;;;;;;;5.60;1.63;;;18.50;28.70;;;;;;5078629;28;20207;-80
2022/04/17 12:54:34;;;;;;;2.37;1.73;;;18.40;29.60;;;;;;5066541;28;20218;-81
2022/04/17 12:57:05;;;;;;;2.43;1.13;;;18.40;31.50;;;;;;5079124;28;20245;-78
2022/04/17 12:59:59;;;;;;;1.33;1.20;;;18.60;30.10;;;;;;5075683;28;20263;-79
2022/04/17 13:02:27;;;;;;;4.40;1.40;;;18.70;30.00;;;;;;5058137;28;20201;-80
2022/04/17 13:04:57;;;;;;;3.20;1.40;;;18.70;28.30;;;;;;5075483;28;20241;-80
2022/04/17 13:07:37;;;;;;;2.93;1.60;;;18.60;29.80;;;;;;5068114;28;20269;-80
2022/04/17 13:10:07;;;;;;;2.47;1.50;;;18.60;29.20;;;;;;5074929;28;20258;-80
2022/04/17 13:12:35;;;;;;;3.20;1.90;;;18.60;29.10;;;;;;5067000;28;20238;-80
2022/04/17 13:15:06;;;;;;;3.03;1.43;;;18.60;29.40;;;;;;5076122;28;20198;-82
2022/04/17 13:17:46;;;;;;;2.77;1.60;;;18.70;30.60;;;;;;5059526;28;20199;-79
2022/04/17 13:20:15;;;;;;;6.23;1.73;;;18.80;29.80;;;;;;5059301;28;20198;-78